createdAt,value
2018-07-13T00:02:35.301Z,14.23
2018-07-13T00:05:38.424Z,12.13
2018-07-13T00:08:41.687Z,11.67
2018-07-13T00:11:45.135Z,14.27
2018-07-13T00:15:08.427Z,13.23
2018-07-13T00:18:11.573Z,11.07
2018-07-13T00:21:14.790Z,14.00
2018-07-13T00:24:17.962Z,16.37
2018-07-13T00:27:21.137Z,9.03
2018-07-13T00:30:24.314Z,10.17
2018-07-13T00:33:27.503Z,9.90
2018-07-13T00:36:31.002Z,16.00
2018-07-13T00:39:33.942Z,11.90
2018-07-13T00:42:37.118Z,16.83
2018-07-13T00:45:40.334Z,11.43
2018-07-13T00:48:43.835Z,13.23
2018-07-13T00:51:47.029Z,13.53
2018-07-13T00:54:50.291Z,12.47
2018-07-13T00:57:53.590Z,13.43
2018-07-13T01:00:56.793Z,11.80
2018-07-13T01:03:59.984Z,15.97
2018-07-13T01:07:03.180Z,18.63
2018-07-13T01:10:06.381Z,13.43
2018-07-13T01:13:09.599Z,11.10
2018-07-13T01:16:12.754Z,16.73
2018-07-13T01:19:15.944Z,15.37
2018-07-13T01:22:19.115Z,13.63
2018-07-13T01:25:22.288Z,16.37
2018-07-13T01:28:25.512Z,15.53
2018-07-13T01:31:28.701Z,14.63
2018-07-13T01:34:31.856Z,11.47
2018-07-13T01:37:35.078Z,12.17
2018-07-13T01:40:38.292Z,11.70
2018-07-13T01:43:41.512Z,12.97
2018-07-13T01:46:44.783Z,15.73
2018-07-13T01:49:48.060Z,14.03
2018-07-13T01:52:51.419Z,18.80
2018-07-13T01:55:54.670Z,13.23
2018-07-13T01:58:57.887Z,12.07
2018-07-13T02:02:01.087Z,12.30
2018-07-13T02:05:04.500Z,15.13
2018-07-13T02:08:07.696Z,15.63
2018-07-13T02:11:10.928Z,17.93
2018-07-13T02:14:14.080Z,15.07
2018-07-13T02:17:17.576Z,10.60
2018-07-13T02:20:20.839Z,20.83
2018-07-13T02:23:24.035Z,22.43
2018-07-13T02:26:27.233Z,15.03
2018-07-13T02:29:30.389Z,13.63
2018-07-13T02:32:33.536Z,15.23
2018-07-13T02:35:36.709Z,19.70
2018-07-13T02:38:39.851Z,14.67
2018-07-13T02:41:43.004Z,17.50
2018-07-13T02:44:46.160Z,14.80
2018-07-13T02:47:49.379Z,16.70
2018-07-13T02:50:52.625Z,16.13
2018-07-13T02:53:55.784Z,15.53
2018-07-13T02:56:58.980Z,22.67
2018-07-13T03:00:02.155Z,17.93
2018-07-13T03:03:05.423Z,22.30
2018-07-13T03:06:08.630Z,19.03
2018-07-13T03:09:12.771Z,15.23
2018-07-13T03:12:15.935Z,17.67
2018-07-13T03:15:19.140Z,18.90
2018-07-13T03:18:22.319Z,18.87
2018-07-13T03:21:25.480Z,15.87
2018-07-13T03:24:28.661Z,14.13
2018-07-13T03:27:31.859Z,18.23
2018-07-13T03:30:35.082Z,17.47
2018-07-13T03:33:38.300Z,17.80
2018-07-13T03:36:41.509Z,18.87
2018-07-13T03:39:44.796Z,22.57
2018-07-13T03:42:48.243Z,23.47
2018-07-13T03:45:51.482Z,15.57
2018-07-13T03:48:54.799Z,17.23
2018-07-13T03:51:58.099Z,17.10
2018-07-13T03:55:01.274Z,22.03
2018-07-13T03:58:04.520Z,16.27
2018-07-13T04:01:07.716Z,22.43
2018-07-13T04:04:10.915Z,20.43
2018-07-13T04:07:14.184Z,19.67
2018-07-13T04:10:17.407Z,16.57
2018-07-13T04:13:20.736Z,20.73
2018-07-13T04:16:24.057Z,18.33
2018-07-13T04:19:27.218Z,16.20
2018-07-13T04:22:30.408Z,22.03
2018-07-13T04:25:33.352Z,15.80
2018-07-13T04:28:37.930Z,20.40
2018-07-13T04:31:41.144Z,15.13
2018-07-13T04:34:44.359Z,16.47
2018-07-13T04:37:47.680Z,17.67
2018-07-13T04:40:50.908Z,17.03
2018-07-13T04:43:54.107Z,21.17
2018-07-13T04:46:57.288Z,19.47
2018-07-13T04:50:00.486Z,16.17
2018-07-13T04:53:03.655Z,20.03
2018-07-13T04:56:06.933Z,20.47
2018-07-13T04:59:10.204Z,21.00
2018-07-13T05:02:13.411Z,22.73
2018-07-13T05:05:16.902Z,17.23
2018-07-13T05:08:20.347Z,27.73
2018-07-13T05:11:23.711Z,19.87
2018-07-13T05:14:26.908Z,15.40
2018-07-13T05:17:30.123Z,20.73
2018-07-13T05:20:33.311Z,17.27
2018-07-13T05:23:36.507Z,17.60
2018-07-13T05:26:39.743Z,15.30
2018-07-13T05:29:43.004Z,15.77
2018-07-13T05:32:46.225Z,15.53
2018-07-13T05:35:49.693Z,16.77
2018-07-13T05:38:52.935Z,16.03
2018-07-13T05:41:56.094Z,18.77
2018-07-13T05:44:59.439Z,11.37
2018-07-13T05:48:02.644Z,18.77
2018-07-13T05:51:05.931Z,12.90
2018-07-13T05:54:09.704Z,16.77
2018-07-13T05:57:12.927Z,16.17
2018-07-13T06:00:16.089Z,14.03
2018-07-13T06:03:19.590Z,16.53
2018-07-13T06:06:23.185Z,11.97
2018-07-13T06:09:26.420Z,13.50
2018-07-13T06:12:29.569Z,14.07
2018-07-13T06:15:32.750Z,14.97
2018-07-13T06:18:35.951Z,15.10
2018-07-13T06:21:39.278Z,12.97
2018-07-13T06:24:42.445Z,13.43
2018-07-13T06:27:45.615Z,12.27
2018-07-13T06:30:48.824Z,13.23
2018-07-13T06:33:52.225Z,13.67
2018-07-13T06:36:55.552Z,15.33
2018-07-13T06:39:58.841Z,12.73
2018-07-13T06:43:02.001Z,13.07
2018-07-13T06:46:06.272Z,15.10
2018-07-13T06:49:09.706Z,15.20
2018-07-13T06:52:12.977Z,12.30
2018-07-13T06:55:17.019Z,13.33
2018-07-13T06:58:31.717Z,9.50
2018-07-13T07:01:35.055Z,9.47
2018-07-13T07:04:39.260Z,10.20
2018-07-13T07:07:42.461Z,12.07
2018-07-13T07:10:45.760Z,12.00
2018-07-13T07:13:49.800Z,10.53
2018-07-13T07:16:53.465Z,10.20
2018-07-13T07:19:56.708Z,8.90
2018-07-13T07:22:59.864Z,11.70
2018-07-13T07:26:03.576Z,8.97
2018-07-13T07:29:06.944Z,14.70
2018-07-13T07:32:10.150Z,16.20
2018-07-13T07:35:13.324Z,10.07
2018-07-13T07:38:16.581Z,11.70
2018-07-13T07:41:19.987Z,11.83
2018-07-13T07:44:23.256Z,8.37
2018-07-13T07:47:26.456Z,10.60
2018-07-13T07:50:29.921Z,11.90
2018-07-13T07:53:33.288Z,11.17
2018-07-13T07:56:36.551Z,9.77
2018-07-13T07:59:39.795Z,10.43
2018-07-13T08:02:43.043Z,11.07
2018-07-13T08:05:46.224Z,8.53
2018-07-13T08:08:49.520Z,7.63
2018-07-13T08:11:52.840Z,6.60
2018-07-13T08:14:56.884Z,9.23
2018-07-13T08:18:00.054Z,8.13
2018-07-13T08:21:03.212Z,8.93
2018-07-13T08:24:06.400Z,10.23
2018-07-13T08:27:13.093Z,7.10
2018-07-13T08:30:28.372Z,10.73
2018-07-13T08:33:31.673Z,8.63
2018-07-13T08:36:34.875Z,9.13
2018-07-13T08:39:38.116Z,7.60
2018-07-13T08:42:41.751Z,7.37
2018-07-13T08:45:44.962Z,10.90
2018-07-13T08:48:48.221Z,8.10
2018-07-13T08:51:51.722Z,7.60
2018-07-13T08:54:55.234Z,9.20
2018-07-13T08:57:58.709Z,7.83
2018-07-13T09:01:02.082Z,6.53
2018-07-13T09:04:05.499Z,9.57
2018-07-13T09:07:08.973Z,7.10
2018-07-13T09:10:13.132Z,11.93
2018-07-13T09:13:16.507Z,8.37
2018-07-13T09:16:19.993Z,8.10
2018-07-13T09:19:23.475Z,9.10
2018-07-13T09:22:26.659Z,8.60
2018-07-13T09:25:29.947Z,8.37
2018-07-13T09:28:32.970Z,8.20
2018-07-13T09:31:36.336Z,8.27
2018-07-13T09:34:39.596Z,17.10
2018-07-13T09:37:42.754Z,7.07
2018-07-13T09:40:45.939Z,11.63
2018-07-13T09:43:49.206Z,8.37
2018-07-13T09:46:52.522Z,7.47
2018-07-13T09:49:55.706Z,7.90
2018-07-13T09:52:58.872Z,8.17
2018-07-13T09:56:02.051Z,8.20
2018-07-13T09:59:05.417Z,9.77
2018-07-13T10:02:08.676Z,7.47
2018-07-13T10:05:11.878Z,11.27
2018-07-13T10:08:15.020Z,6.60
2018-07-13T10:11:18.224Z,5.27
2018-07-13T10:14:21.526Z,7.33
2018-07-13T10:17:24.702Z,7.33
2018-07-13T10:20:27.968Z,11.27
2018-07-13T10:23:31.615Z,8.10
2018-07-13T10:26:36.045Z,12.27
2018-07-13T10:29:43.751Z,10.37
2018-07-13T10:32:46.944Z,3.77
2018-07-13T10:35:50.851Z,9.43
2018-07-13T10:38:54.096Z,7.93
2018-07-13T10:41:57.255Z,8.63
2018-07-13T10:45:00.504Z,5.27
2018-07-13T10:48:03.664Z,9.17
2018-07-13T10:51:06.847Z,8.27
2018-07-13T10:54:10.001Z,7.47
2018-07-13T10:57:13.172Z,5.83
2018-07-13T11:00:16.324Z,7.07
2018-07-13T11:03:19.508Z,8.23
2018-07-13T11:06:22.701Z,10.60
2018-07-13T11:09:25.844Z,10.13
2018-07-13T11:12:29.049Z,8.93
2018-07-13T11:15:32.225Z,7.07
2018-07-13T11:18:35.448Z,8.03
2018-07-13T11:21:38.587Z,6.50
2018-07-13T11:24:41.772Z,7.03
2018-07-13T11:27:45.015Z,9.60
2018-07-13T11:30:48.172Z,8.63
2018-07-13T11:33:51.334Z,4.87
2018-07-13T11:36:54.678Z,7.10
2018-07-13T11:39:58.212Z,9.57
2018-07-13T11:43:01.220Z,4.97
2018-07-13T11:46:04.363Z,6.87
2018-07-13T11:49:07.675Z,7.57
2018-07-13T11:52:10.888Z,7.60
2018-07-13T11:55:14.012Z,6.13
2018-07-13T11:58:17.275Z,6.23
2018-07-13T12:01:20.576Z,6.37
2018-07-13T12:04:23.710Z,7.43
2018-07-13T12:07:27.021Z,8.43
2018-07-13T12:10:29.855Z,6.90
2018-07-13T12:13:33.003Z,7.33
2018-07-13T12:16:36.232Z,8.10
2018-07-13T12:19:39.373Z,3.80
2018-07-13T12:22:42.532Z,6.47
2018-07-13T12:25:45.735Z,6.27
2018-07-13T12:28:48.941Z,7.27
2018-07-13T12:31:52.099Z,5.63
2018-07-13T12:34:55.280Z,7.30
2018-07-13T12:37:58.469Z,5.63
2018-07-13T12:41:01.720Z,8.37
2018-07-13T12:44:04.843Z,5.97
2018-07-13T12:47:07.991Z,5.00
2018-07-13T12:50:11.152Z,5.00
2018-07-13T12:53:14.275Z,4.83
2018-07-13T12:56:17.469Z,6.33
2018-07-13T12:59:20.665Z,8.90
2018-07-13T13:02:23.817Z,3.97
2018-07-13T13:05:27.248Z,4.87
2018-07-13T13:08:30.970Z,8.77
2018-07-13T13:11:34.173Z,5.33
2018-07-13T13:14:37.352Z,5.50
2018-07-13T13:17:40.776Z,7.33
2018-07-13T13:20:43.951Z,8.17
2018-07-13T13:23:47.136Z,5.23
2018-07-13T13:26:50.304Z,4.80
2018-07-13T13:29:53.460Z,5.10
2018-07-13T13:32:56.633Z,4.03
2018-07-13T13:36:00.267Z,6.77
2018-07-13T13:39:04.673Z,4.53
2018-07-13T13:42:08.063Z,6.17
2018-07-13T13:45:11.219Z,4.23
2018-07-13T13:48:14.513Z,6.87
2018-07-13T13:51:17.963Z,5.77
2018-07-13T13:54:21.971Z,4.20
2018-07-13T13:57:25.237Z,4.97
2018-07-13T14:00:28.889Z,4.27
2018-07-13T14:03:32.509Z,6.20
2018-07-13T14:06:35.770Z,8.20
2018-07-13T14:09:39.056Z,5.93
2018-07-13T14:12:42.412Z,5.50
2018-07-13T14:15:45.620Z,4.30
2018-07-13T14:18:48.806Z,4.20
2018-07-13T14:21:51.876Z,6.10
2018-07-13T14:24:55.047Z,5.33
2018-07-13T14:27:58.316Z,4.20
2018-07-13T14:31:01.471Z,3.60
2018-07-13T14:34:04.748Z,4.50
2018-07-13T14:37:08.068Z,4.83
2018-07-13T14:40:11.035Z,5.93
2018-07-13T14:43:14.364Z,4.27
2018-07-13T14:46:17.546Z,3.57
2018-07-13T14:49:20.788Z,4.13
2018-07-13T14:52:24.128Z,3.60
2018-07-13T14:55:27.317Z,4.67
2018-07-13T14:58:30.507Z,5.57
2018-07-13T15:01:33.746Z,4.20
2018-07-13T15:04:36.961Z,2.90
2018-07-13T15:07:40.240Z,4.33
2018-07-13T15:10:43.582Z,4.27
2018-07-13T15:13:46.768Z,7.07
2018-07-13T15:16:50.086Z,3.60
2018-07-13T15:19:53.270Z,4.63
2018-07-13T15:22:56.623Z,5.67
2018-07-13T15:25:59.775Z,6.47
2018-07-13T15:29:03.075Z,5.73
2018-07-13T15:32:06.130Z,5.43
2018-07-13T15:35:09.502Z,3.20
2018-07-13T15:38:12.724Z,4.53
2018-07-13T15:41:15.995Z,4.43
2018-07-13T15:44:19.156Z,6.50
2018-07-13T15:47:22.516Z,5.10
2018-07-13T15:50:25.720Z,3.97
2018-07-13T15:53:28.932Z,4.07
2018-07-13T15:56:32.160Z,3.77
2018-07-13T15:59:35.343Z,6.40
2018-07-13T16:02:38.635Z,4.67
2018-07-13T16:05:41.844Z,7.60
2018-07-13T16:08:45.050Z,5.63
2018-07-13T16:11:48.233Z,3.63
2018-07-13T16:14:51.980Z,6.70
2018-07-13T16:17:55.363Z,3.17
2018-07-13T16:20:58.793Z,4.30
2018-07-13T16:24:02.357Z,3.60
2018-07-13T16:27:05.748Z,3.77
2018-07-13T16:30:09.055Z,4.93
2018-07-13T16:33:12.298Z,5.70
2018-07-13T16:36:15.539Z,5.43
2018-07-13T16:39:18.663Z,5.40
2018-07-13T16:42:21.807Z,2.97
2018-07-13T16:45:24.971Z,4.00
2018-07-13T16:48:28.227Z,3.97
2018-07-13T16:51:31.515Z,4.07
2018-07-13T16:54:34.872Z,4.80
2018-07-13T16:57:38.212Z,7.67
2018-07-13T17:00:41.548Z,3.30
2018-07-13T17:03:44.715Z,3.30
2018-07-13T17:06:47.952Z,5.50
2018-07-13T17:09:51.211Z,4.67
2018-07-13T17:12:54.748Z,6.53
2018-07-13T17:15:58.188Z,4.93
2018-07-13T17:19:01.469Z,6.10
2018-07-13T17:22:04.707Z,4.63
2018-07-13T17:25:07.921Z,3.60
2018-07-13T17:28:11.237Z,3.23
2018-07-13T17:31:14.384Z,4.63
2018-07-13T17:34:17.663Z,4.50
2018-07-13T17:37:20.842Z,6.03
2018-07-13T17:40:24.068Z,4.87
2018-07-13T17:43:27.308Z,5.20
2018-07-13T17:46:30.876Z,2.50
2018-07-13T17:49:34.028Z,9.47
2018-07-13T17:52:37.230Z,7.20
2018-07-13T17:55:40.413Z,4.17
2018-07-13T17:58:43.632Z,4.77
2018-07-13T18:01:46.871Z,3.73
2018-07-13T18:04:51.818Z,4.27
2018-07-13T18:07:55.328Z,4.67
2018-07-13T18:10:59.105Z,5.63
2018-07-13T18:14:02.268Z,4.00
2018-07-13T18:17:05.482Z,5.00
2018-07-13T18:20:08.876Z,7.93
2018-07-13T18:23:12.528Z,9.80
2018-07-13T18:26:15.716Z,6.87
2018-07-13T18:29:19.157Z,6.30
2018-07-13T18:32:23.133Z,3.20
2018-07-13T18:35:26.691Z,7.90
2018-07-13T18:38:29.923Z,5.27
2018-07-13T18:41:33.120Z,3.93
2018-07-13T18:44:36.274Z,5.00
2018-07-13T18:47:39.489Z,6.37
2018-07-13T18:50:42.876Z,3.77
2018-07-13T18:53:46.185Z,4.87
2018-07-13T18:56:49.922Z,2.97
2018-07-13T18:59:53.695Z,4.33
2018-07-13T19:02:57.016Z,7.47
2018-07-13T19:06:00.220Z,7.20
2018-07-13T19:09:03.572Z,4.17
2018-07-13T19:12:06.982Z,6.33
2018-07-13T19:15:10.406Z,4.70
2018-07-13T19:18:13.574Z,5.20
2018-07-13T19:21:16.504Z,3.93
2018-07-13T19:24:20.145Z,5.20
2018-07-13T19:27:23.877Z,6.67
2018-07-13T19:30:27.334Z,6.60
2018-07-13T19:33:30.518Z,6.00
2018-07-13T19:36:33.709Z,4.20
2018-07-13T19:39:37.848Z,5.53
2018-07-13T19:42:41.032Z,4.70
2018-07-13T19:45:44.292Z,8.30
2018-07-13T19:48:47.623Z,7.10
2018-07-13T19:51:51.463Z,7.37
2018-07-13T19:54:54.753Z,5.57
2018-07-13T19:57:57.948Z,5.93
2018-07-13T20:01:01.100Z,5.93
2018-07-13T20:04:04.264Z,7.93
2018-07-13T20:07:07.537Z,8.33
2018-07-13T20:10:10.724Z,4.97
2018-07-13T20:13:14.043Z,4.97
2018-07-13T20:16:17.440Z,4.50
2018-07-13T20:19:20.639Z,6.00
2018-07-13T20:22:23.804Z,5.57
2018-07-13T20:25:26.955Z,8.00
2018-07-13T20:28:30.096Z,5.07
2018-07-13T20:31:33.310Z,4.73
2018-07-13T20:34:36.443Z,5.33
2018-07-13T20:37:39.612Z,5.80
2018-07-13T20:40:42.853Z,7.73
2018-07-13T20:43:46.008Z,7.57
2018-07-13T20:46:49.214Z,4.97
2018-07-13T20:49:52.460Z,5.77
2018-07-13T20:52:55.689Z,5.53
2018-07-13T20:55:58.859Z,8.53
2018-07-13T20:59:02.032Z,6.03
2018-07-13T21:02:05.217Z,5.70
2018-07-13T21:05:08.466Z,6.80
2018-07-13T21:08:11.597Z,9.57
2018-07-13T21:11:14.746Z,5.87
2018-07-13T21:14:18.523Z,9.20
2018-07-13T21:17:21.832Z,6.50
2018-07-13T21:20:25.095Z,6.87
2018-07-13T21:26:37.019Z,8.27
2018-07-13T21:29:39.864Z,7.27
2018-07-13T21:32:43.023Z,8.37
2018-07-13T21:35:46.240Z,8.60
2018-07-13T21:38:49.534Z,9.47
2018-07-13T21:41:52.775Z,9.00
2018-07-13T21:44:55.969Z,9.03
2018-07-13T21:47:59.291Z,6.73
2018-07-13T21:51:02.537Z,6.93
2018-07-13T21:54:05.703Z,7.83
2018-07-13T21:57:08.952Z,7.63
2018-07-13T22:00:12.105Z,7.17
2018-07-13T22:03:15.408Z,9.73
2018-07-13T22:06:18.639Z,10.20
2018-07-13T22:09:21.903Z,10.00
2018-07-13T22:12:25.171Z,7.83
2018-07-13T22:15:28.352Z,8.37
2018-07-13T22:18:31.727Z,9.03
2018-07-13T22:21:35.030Z,7.50
2018-07-13T22:24:38.191Z,8.20
2018-07-13T22:27:41.384Z,7.07
2018-07-13T22:30:44.609Z,8.43
2018-07-13T22:33:47.829Z,7.90
2018-07-13T22:36:51.020Z,8.07
2018-07-13T22:39:54.177Z,9.67
2018-07-13T22:42:57.403Z,8.57
2018-07-13T22:46:00.635Z,10.23
2018-07-13T22:49:03.842Z,9.63
2018-07-13T22:52:07.090Z,8.27
2018-07-13T22:55:10.332Z,7.87
2018-07-13T22:58:13.468Z,9.87
2018-07-13T23:01:16.649Z,9.07
2018-07-13T23:04:19.830Z,7.93
2018-07-13T23:07:23.293Z,7.30
2018-07-13T23:10:26.447Z,10.00
2018-07-13T23:13:29.669Z,7.80
2018-07-13T23:16:32.844Z,7.63
2018-07-13T23:19:36.007Z,10.80
2018-07-13T23:22:39.340Z,8.03
2018-07-13T23:25:42.504Z,11.30
2018-07-13T23:28:45.672Z,7.80
2018-07-13T23:31:48.928Z,8.03
2018-07-13T23:34:52.075Z,7.80
2018-07-13T23:37:55.227Z,8.80
2018-07-13T23:40:58.426Z,8.97
2018-07-13T23:44:01.612Z,7.97
2018-07-13T23:47:04.824Z,10.93
2018-07-13T23:50:08.027Z,8.43
2018-07-13T23:53:11.227Z,7.43
2018-07-13T23:56:14.409Z,8.53
2018-07-13T23:59:17.572Z,8.03
